เทศบาลนครลำปาง, ประเทศไทย

08:47 PM ICT วัน สิงหาคม 01, 2015 (GMT +0700)
Chiang Mai International | | Change Station
CLOSE
Current Station
Airport
Location: Chiang Mai,
Elevation: 1030 ft
Nearby Weather Stations

Elev 1030 ft 18.77 °N, 98.97 °E | Updated 17 minutes ago

Mostly Cloudy
มีเมฆคลุมเป็นส่วนใหญ่
77 ฟาเรนไฮน์
Feels Like 77 ฟาเรนไฮน์
N
6
ลม ความผันแปร ลม from ทางทิศเหนือและทิศตะวันออกเฉียงเหนือ

วันนี้
High -- | Low -- ฟาเรนไฮน์
--% Chance of Precip.
Yesterday
High -- | Low -- ฟาเรนไฮน์
Precip. -- นิ้ว
5:59 AM 6:56 PM
พระจันทร์เต็มดวง, 98% visible
ความดัน 29.83 นิ้ว
ทัศนวิสัย 6.2 ไมล์
เมฆ มีเมฆคลุมเป็นส่วนใหญ่ 3500 ft
อุณหภูมิที่อากาศอาจจับตัวเป็นหยาดน้ำค้าง 70 ฟาเรนไฮน์
ความชื้น 78%
Rainfall 0.00 นิ้ว
Snow Depth Not available.
UV 0 out of 12
Pollen Not available.
Air Quality Not available.
Flu Activity Not available.
METAR VTCC 011330Z 02005KT 9999 BKN035 25/21 Q1010 A2984 NOSIG

More Conditions Fewer Conditions

ความดัน 29.83 นิ้ว
ทัศนวิสัย 6.2 ไมล์
เมฆ มีเมฆคลุมเป็นส่วนใหญ่ 3500 ft
อุณหภูมิที่อากาศอาจจับตัวเป็นหยาดน้ำค้าง 70 ฟาเรนไฮน์
ความชื้น 78%
Rainfall 0.00 นิ้ว
Snow Depth Not available.
UV 0 out of 12
Pollen Not available.
Air Quality Not available.
Flu Activity Not available.
METAR VTCC 011330Z 02005KT 9999 BKN035 25/21 Q1010 A2984 NOSIG

More Conditions Fewer Conditions

10-Day Weather Forecast

×

Almanac

ดาราศาสตร์

Aug. 01, 2015 Rise Set
Actual Time
Civil Twilight
Nautical Twilight
Astronomical Twilight
Moon
Length Of Visible Light
ความยาวของวัน
Tomorrow will be .
, % of the Moon is Illuminated

Today's Extremes

Country Highs Country Lows

Community

WunderPhotos

Upload Photos

1,842,940 photos uploaded!

WunderBlogs® & News

Nearby

Air Quality

  Air Quality AQ Index Pollutant
Not available.

Snow Depth

Station Depth Elevation

Earthquake Activity

City Distance Mag. Time & Date
Minimum magnitude displayed is 2.5.

Coastal Water Temperatures

สถานที่ อุณหภูมิ

Stations

Nearby Weather Stations

Station Location Temp ลมหนาว อุณหภูมิที่อากาศอาจจับตัวเป็นหยาดน้ำค้าง ความชื้น ลม Precip. Elev ปรับปรุงล่าสุด Type